sensor_id;sensor_type;location;lat;lon;timestamp;pressure;altitude;pressure_sealevel;temperature;humidity
64967;BME280;51710;38.732;-121.358;2023-08-12T00:00:35;100671.81;;;33.32;34.11
64967;BME280;51710;38.732;-121.358;2023-08-12T00:03:02;100669.38;;;33.31;33.72
64967;BME280;51710;38.732;-121.358;2023-08-12T00:05:28;100669.38;;;33.31;34.17
64967;BME280;51710;38.732;-121.358;2023-08-12T00:07:55;100666.72;;;33.26;33.66
64967;BME280;51710;38.732;-121.358;2023-08-12T00:10:22;100676.16;;;33.25;33.75
64967;BME280;51710;38.732;-121.358;2023-08-12T00:12:48;100669.38;;;33.31;34.19
64967;BME280;51710;38.732;-121.358;2023-08-12T00:15:14;100668.56;;;33.30;34.19
64967;BME280;51710;38.732;-121.358;2023-08-12T00:17:41;100670.63;;;33.25;34.05
64967;BME280;51710;38.732;-121.358;2023-08-12T00:20:07;100669.09;;;33.19;33.70
64967;BME280;51710;38.732;-121.358;2023-08-12T00:22:36;100675.94;;;33.08;34.63
64967;BME280;51710;38.732;-121.358;2023-08-12T00:25:04;100675.44;;;33.06;34.65
64967;BME280;51710;38.732;-121.358;2023-08-12T00:27:30;100678.91;;;33.11;34.83
64967;BME280;51710;38.732;-121.358;2023-08-12T00:29:56;100672.16;;;33.17;34.19
64967;BME280;51710;38.732;-121.358;2023-08-12T00:32:23;100674.59;;;33.19;34.50
64967;BME280;51710;38.732;-121.358;2023-08-12T00:34:49;100671.03;;;33.18;34.57
64967;BME280;51710;38.732;-121.358;2023-08-12T00:37:15;100673.88;;;33.13;34.37
64967;BME280;51710;38.732;-121.358;2023-08-12T00:39:42;100674.81;;;33.09;34.50
64967;BME280;51710;38.732;-121.358;2023-08-12T00:42:08;100664.47;;;33.00;34.09
64967;BME280;51710;38.732;-121.358;2023-08-12T00:44:34;100668.56;;;32.89;34.33
64967;BME280;51710;38.732;-121.358;2023-08-12T00:47:01;100665.91;;;32.84;34.76
64967;BME280;51710;38.732;-121.358;2023-08-12T00:49:27;100673.03;;;32.85;34.92
64967;BME280;51710;38.732;-121.358;2023-08-12T00:51:54;100676.94;;;32.84;34.38
64967;BME280;51710;38.732;-121.358;2023-08-12T00:54:21;100672.00;;;32.81;35.07
64967;BME280;51710;38.732;-121.358;2023-08-12T00:56:51;100669.78;;;32.83;34.58
64967;BME280;51710;38.732;-121.358;2023-08-12T00:59:20;100665.91;;;32.84;34.57
64967;BME280;51710;38.732;-121.358;2023-08-12T01:01:47;100658.13;;;32.86;34.90
64967;BME280;51710;38.732;-121.358;2023-08-12T01:04:13;100657.09;;;32.82;34.78
64967;BME280;51710;38.732;-121.358;2023-08-12T01:06:40;100666.81;;;32.80;35.15
64967;BME280;51710;38.732;-121.358;2023-08-12T01:09:07;100665.50;;;32.77;35.00
64967;BME280;51710;38.732;-121.358;2023-08-12T01:11:57;100652.38;;;32.69;35.53
64967;BME280;51710;38.732;-121.358;2023-08-12T01:15:14;100656.38;;;32.63;35.35
64967;BME280;51710;38.732;-121.358;2023-08-12T01:17:15;100652.16;;;32.66;35.15
64967;BME280;51710;38.732;-121.358;2023-08-12T01:19:42;100645.34;;;32.63;34.48
64967;BME280;51710;38.732;-121.358;2023-08-12T01:22:11;100648.19;;;32.58;35.08
64967;BME280;51710;38.732;-121.358;2023-08-12T01:24:44;100643.78;;;32.57;34.72
64967;BME280;51710;38.732;-121.358;2023-08-12T01:27:12;100642.16;;;32.56;34.88
64967;BME280;51710;38.732;-121.358;2023-08-12T01:29:45;100640.03;;;32.53;35.45
64967;BME280;51710;38.732;-121.358;2023-08-12T01:32:37;100645.53;;;32.53;35.24
64967;BME280;51710;38.732;-121.358;2023-08-12T01:35:23;100642.16;;;32.43;34.93
64967;BME280;51710;38.732;-121.358;2023-08-12T01:37:52;100645.25;;;32.36;34.57
64967;BME280;51710;38.732;-121.358;2023-08-12T01:40:19;100638.81;;;32.27;35.25
64967;BME280;51710;38.732;-121.358;2023-08-12T01:42:46;100638.38;;;32.20;35.03
64967;BME280;51710;38.732;-121.358;2023-08-12T01:45:14;100628.97;;;32.21;34.94
64967;BME280;51710;38.732;-121.358;2023-08-12T01:47:43;100628.16;;;32.21;35.36
64967;BME280;51710;38.732;-121.358;2023-08-12T01:50:12;100629.38;;;32.15;34.52
64967;BME280;51710;38.732;-121.358;2023-08-12T01:52:39;100621.78;;;32.07;34.67
64967;BME280;51710;38.732;-121.358;2023-08-12T01:55:06;100628.72;;;32.04;34.69
64967;BME280;51710;38.732;-121.358;2023-08-12T01:57:32;100616.34;;;32.02;34.90
64967;BME280;51710;38.732;-121.358;2023-08-12T02:00:00;100623.53;;;32.03;34.93
64967;BME280;51710;38.732;-121.358;2023-08-12T02:02:26;100626.06;;;31.99;35.13
64967;BME280;51710;38.732;-121.358;2023-08-12T02:04:52;100626.63;;;31.96;34.65
64967;BME280;51710;38.732;-121.358;2023-08-12T02:07:18;100624.03;;;31.86;34.71
64967;BME280;51710;38.732;-121.358;2023-08-12T02:09:45;100624.94;;;31.81;34.52
64967;BME280;51710;38.732;-121.358;2023-08-12T02:12:11;100629.72;;;31.76;34.48
64967;BME280;51710;38.732;-121.358;2023-08-12T02:14:37;100634.47;;;31.70;34.59
64967;BME280;51710;38.732;-121.358;2023-08-12T02:17:04;100626.59;;;31.64;34.74
64967;BME280;51710;38.732;-121.358;2023-08-12T02:19:33;100625.47;;;31.65;34.80
64967;BME280;51710;38.732;-121.358;2023-08-12T02:22:01;100630.19;;;31.64;34.73
64967;BME280;51710;38.732;-121.358;2023-08-12T02:24:27;100622.19;;;31.63;34.66
64967;BME280;51710;38.732;-121.358;2023-08-12T02:26:54;100615.03;;;31.62;35.14
64967;BME280;51710;38.732;-121.358;2023-08-12T02:29:20;100607.09;;;31.60;34.97
64967;BME280;51710;38.732;-121.358;2023-08-12T02:31:47;100611.31;;;31.53;35.04
64967;BME280;51710;38.732;-121.358;2023-08-12T02:34:13;100604.75;;;31.49;34.82
64967;BME280;51710;38.732;-121.358;2023-08-12T02:36:39;100599.06;;;31.45;35.02
64967;BME280;51710;38.732;-121.358;2023-08-12T02:39:06;100610.66;;;31.42;35.03
64967;BME280;51710;38.732;-121.358;2023-08-12T02:41:32;100614.31;;;31.38;34.95
64967;BME280;51710;38.732;-121.358;2023-08-12T02:43:58;100617.09;;;31.33;34.96
64967;BME280;51710;38.732;-121.358;2023-08-12T02:46:25;100620.16;;;31.31;35.01
64967;BME280;51710;38.732;-121.358;2023-08-12T02:48:51;100628.69;;;31.30;35.49
64967;BME280;51710;38.732;-121.358;2023-08-12T02:51:17;100631.75;;;31.28;35.43
64967;BME280;51710;38.732;-121.358;2023-08-12T02:53:43;100633.16;;;31.26;35.14
64967;BME280;51710;38.732;-121.358;2023-08-12T02:56:10;100629.06;;;31.23;35.52
64967;BME280;51710;38.732;-121.358;2023-08-12T02:58:36;100631.06;;;31.18;35.44
64967;BME280;51710;38.732;-121.358;2023-08-12T03:01:03;100635.31;;;31.10;35.37
64967;BME280;51710;38.732;-121.358;2023-08-12T03:03:30;100640.13;;;31.00;35.57
64967;BME280;51710;38.732;-121.358;2023-08-12T03:05:56;100645.78;;;30.84;35.27
64967;BME280;51710;38.732;-121.358;2023-08-12T03:08:25;100653.59;;;30.72;35.59
64967;BME280;51710;38.732;-121.358;2023-08-12T03:10:58;100664.41;;;30.64;36.17
64967;BME280;51710;38.732;-121.358;2023-08-12T03:13:25;100666.16;;;30.55;36.04
64967;BME280;51710;38.732;-121.358;2023-08-12T03:15:51;100673.13;;;30.47;36.23
64967;BME280;51710;38.732;-121.358;2023-08-12T03:18:18;100683.94;;;30.39;36.21
64967;BME280;51710;38.732;-121.358;2023-08-12T03:20:44;100685.41;;;30.26;36.62
64967;BME280;51710;38.732;-121.358;2023-08-12T03:23:10;100684.94;;;30.14;37.20
64967;BME280;51710;38.732;-121.358;2023-08-12T03:25:37;100689.97;;;30.02;37.37
64967;BME280;51710;38.732;-121.358;2023-08-12T03:28:03;100687.03;;;29.94;37.79
64967;BME280;51710;38.732;-121.358;2023-08-12T03:30:29;100687.84;;;29.89;37.78
64967;BME280;51710;38.732;-121.358;2023-08-12T03:32:56;100692.56;;;29.83;38.24
64967;BME280;51710;38.732;-121.358;2023-08-12T03:35:23;100696.47;;;29.77;38.23
64967;BME280;51710;38.732;-121.358;2023-08-12T03:37:49;100706.66;;;29.72;38.71
64967;BME280;51710;38.732;-121.358;2023-08-12T03:40:17;100703.91;;;29.67;38.12
64967;BME280;51710;38.732;-121.358;2023-08-12T03:42:43;100701.47;;;29.60;37.67
64967;BME280;51710;38.732;-121.358;2023-08-12T03:45:09;100697.94;;;29.55;37.85
64967;BME280;51710;38.732;-121.358;2023-08-12T03:47:36;100701.22;;;29.52;37.63
64967;BME280;51710;38.732;-121.358;2023-08-12T03:50:02;100702.63;;;29.49;38.04
64967;BME280;51710;38.732;-121.358;2023-08-12T03:52:29;100709.50;;;29.47;37.87
64967;BME280;51710;38.732;-121.358;2023-08-12T03:54:55;100709.22;;;29.43;37.48
64967;BME280;51710;38.732;-121.358;2023-08-12T03:57:21;100712.25;;;29.42;37.52
64967;BME280;51710;38.732;-121.358;2023-08-12T03:59:47;100725.16;;;29.41;37.81
64967;BME280;51710;38.732;-121.358;2023-08-12T04:02:14;100731.22;;;29.38;37.76
64967;BME280;51710;38.732;-121.358;2023-08-12T04:04:40;100732.06;;;29.34;37.67
64967;BME280;51710;38.732;-121.358;2023-08-12T04:07:08;100738.66;;;29.33;37.93
64967;BME280;51710;38.732;-121.358;2023-08-12T04:09:34;100743.63;;;29.31;37.70
64967;BME280;51710;38.732;-121.358;2023-08-12T04:12:00;100740.34;;;29.29;37.93
64967;BME280;51710;38.732;-121.358;2023-08-12T04:14:27;100737.88;;;29.27;37.59
64967;BME280;51710;38.732;-121.358;2023-08-12T04:16:53;100733.75;;;29.25;37.97
64967;BME280;51710;38.732;-121.358;2023-08-12T04:19:19;100740.59;;;29.22;37.95
64967;BME280;51710;38.732;-121.358;2023-08-12T04:21:45;100749.13;;;29.21;38.15
64967;BME280;51710;38.732;-121.358;2023-08-12T04:24:12;100753.53;;;29.17;38.10
64967;BME280;51710;38.732;-121.358;2023-08-12T04:26:38;100755.47;;;29.11;38.31
64967;BME280;51710;38.732;-121.358;2023-08-12T04:29:05;100766.16;;;29.08;38.28
64967;BME280;51710;38.732;-121.358;2023-08-12T04:31:32;100762.03;;;29.00;38.93
64967;BME280;51710;38.732;-121.358;2023-08-12T04:33:58;100758.19;;;28.96;39.20
64967;BME280;51710;38.732;-121.358;2023-08-12T04:36:24;100762.91;;;28.91;39.63
64967;BME280;51710;38.732;-121.358;2023-08-12T04:38:50;100763.44;;;28.83;39.99
64967;BME280;51710;38.732;-121.358;2023-08-12T04:41:17;100760.16;;;28.75;39.78
64967;BME280;51710;38.732;-121.358;2023-08-12T04:43:44;100767.31;;;28.71;40.04
64967;BME280;51710;38.732;-121.358;2023-08-12T04:46:10;100764.53;;;28.66;40.20
64967;BME280;51710;38.732;-121.358;2023-08-12T04:48:37;100765.09;;;28.63;40.52
64967;BME280;51710;38.732;-121.358;2023-08-12T04:51:03;100763.47;;;28.57;40.93
64967;BME280;51710;38.732;-121.358;2023-08-12T04:53:30;100762.66;;;28.52;40.65
64967;BME280;51710;38.732;-121.358;2023-08-12T04:55:57;100771.09;;;28.45;41.10
64967;BME280;51710;38.732;-121.358;2023-08-12T04:58:23;100768.63;;;28.39;41.57
64967;BME280;51710;38.732;-121.358;2023-08-12T05:00:50;100778.75;;;28.33;41.51
64967;BME280;51710;38.732;-121.358;2023-08-12T05:03:19;100781.78;;;28.27;42.36
64967;BME280;51710;38.732;-121.358;2023-08-12T05:05:50;100784.78;;;28.20;42.46
64967;BME280;51710;38.732;-121.358;2023-08-12T05:08:16;100788.59;;;28.19;42.02
64967;BME280;51710;38.732;-121.358;2023-08-12T05:10:43;100784.50;;;28.17;42.47
64967;BME280;51710;38.732;-121.358;2023-08-12T05:13:09;100791.34;;;28.14;42.69
64967;BME280;51710;38.732;-121.358;2023-08-12T05:15:36;100793.78;;;28.11;42.97
64967;BME280;51710;38.732;-121.358;2023-08-12T05:18:03;100804.75;;;28.06;43.02
64967;BME280;51710;38.732;-121.358;2023-08-12T05:20:29;100805.56;;;28.01;43.04
64967;BME280;51710;38.732;-121.358;2023-08-12T05:22:55;100813.78;;;27.96;42.80
64967;BME280;51710;38.732;-121.358;2023-08-12T05:25:21;100805.53;;;27.91;43.27
64967;BME280;51710;38.732;-121.358;2023-08-12T05:27:48;100809.03;;;27.87;43.30
64967;BME280;51710;38.732;-121.358;2023-08-12T05:30:14;100803.81;;;27.80;43.38
64967;BME280;51710;38.732;-121.358;2023-08-12T05:32:40;100811.47;;;27.73;43.32
64967;BME280;51710;38.732;-121.358;2023-08-12T05:35:07;100817.47;;;27.65;43.37
64967;BME280;51710;38.732;-121.358;2023-08-12T05:37:33;100815.78;;;27.59;43.85
64967;BME280;51710;38.732;-121.358;2023-08-12T05:40:00;100812.44;;;27.52;43.66
64967;BME280;51710;38.732;-121.358;2023-08-12T05:42:26;100818.19;;;27.45;43.99
64967;BME280;51710;38.732;-121.358;2023-08-12T05:44:52;100807.47;;;27.39;44.37
64967;BME280;51710;38.732;-121.358;2023-08-12T05:47:18;100806.63;;;27.33;44.08
64967;BME280;51710;38.732;-121.358;2023-08-12T05:49:45;100812.28;;;27.27;44.66
64967;BME280;51710;38.732;-121.358;2023-08-12T05:52:11;100809.50;;;27.22;44.66
64967;BME280;51710;38.732;-121.358;2023-08-12T05:54:37;100811.72;;;27.20;44.88
64967;BME280;51710;38.732;-121.358;2023-08-12T05:57:03;100806.19;;;27.15;44.80
64967;BME280;51710;38.732;-121.358;2023-08-12T05:59:30;100812.72;;;27.09;44.97
64967;BME280;51710;38.732;-121.358;2023-08-12T06:01:56;100815.44;;;27.04;45.46
64967;BME280;51710;38.732;-121.358;2023-08-12T06:04:22;100815.94;;;27.01;45.63
64967;BME280;51710;38.732;-121.358;2023-08-12T06:06:49;100812.34;;;26.95;45.48
64967;BME280;51710;38.732;-121.358;2023-08-12T06:09:15;100823.19;;;26.85;45.90
64967;BME280;51710;38.732;-121.358;2023-08-12T06:11:41;100813.31;;;26.79;45.89
64967;BME280;51710;38.732;-121.358;2023-08-12T06:14:08;100813.56;;;26.73;46.01
64967;BME280;51710;38.732;-121.358;2023-08-12T06:16:34;100816.78;;;26.70;46.06
64967;BME280;51710;38.732;-121.358;2023-08-12T06:19:01;100823.00;;;26.65;46.45
64967;BME280;51710;38.732;-121.358;2023-08-12T06:21:27;100822.44;;;26.63;46.34
64967;BME280;51710;38.732;-121.358;2023-08-12T06:23:53;100832.00;;;26.60;46.21
64967;BME280;51710;38.732;-121.358;2023-08-12T06:26:20;100830.59;;;26.58;46.45
64967;BME280;51710;38.732;-121.358;2023-08-12T06:28:46;100836.31;;;26.56;46.51
64967;BME280;51710;38.732;-121.358;2023-08-12T06:31:12;100841.75;;;26.51;46.70
64967;BME280;51710;38.732;-121.358;2023-08-12T06:33:38;100829.09;;;26.45;46.78
64967;BME280;51710;38.732;-121.358;2023-08-12T06:36:06;100834.25;;;26.42;47.12
64967;BME280;51710;38.732;-121.358;2023-08-12T06:38:32;100838.34;;;26.39;46.78
64967;BME280;51710;38.732;-121.358;2023-08-12T06:40:58;100838.84;;;26.36;47.09
64967;BME280;51710;38.732;-121.358;2023-08-12T06:43:24;100848.41;;;26.34;47.02
64967;BME280;51710;38.732;-121.358;2023-08-12T06:45:51;100845.94;;;26.32;47.01
64967;BME280;51710;38.732;-121.358;2023-08-12T06:48:17;100849.16;;;26.29;47.47
64967;BME280;51710;38.732;-121.358;2023-08-12T06:50:43;100844.47;;;26.25;47.48
64967;BME280;51710;38.732;-121.358;2023-08-12T06:53:09;100849.88;;;26.20;47.52
64967;BME280;51710;38.732;-121.358;2023-08-12T06:55:36;100851.47;;;26.16;47.70
64967;BME280;51710;38.732;-121.358;2023-08-12T06:58:02;100853.63;;;26.14;47.75
64967;BME280;51710;38.732;-121.358;2023-08-12T07:00:28;100860.44;;;26.11;47.61
64967;BME280;51710;38.732;-121.358;2023-08-12T07:02:54;100866.66;;;26.07;47.84
64967;BME280;51710;38.732;-121.358;2023-08-12T07:05:21;100872.84;;;26.02;47.96
64967;BME280;51710;38.732;-121.358;2023-08-12T07:07:47;100866.75;;;25.95;47.85
64967;BME280;51710;38.732;-121.358;2023-08-12T07:10:13;100867.28;;;25.92;48.80
64967;BME280;51710;38.732;-121.358;2023-08-12T07:12:39;100880.59;;;25.89;48.24
64967;BME280;51710;38.732;-121.358;2023-08-12T07:15:06;100875.88;;;25.84;48.34
64967;BME280;51710;38.732;-121.358;2023-08-12T07:17:32;100882.38;;;25.78;48.36
64967;BME280;51710;38.732;-121.358;2023-08-12T07:19:59;100885.03;;;25.73;48.47
64967;BME280;51710;38.732;-121.358;2023-08-12T07:22:25;100881.41;;;25.68;48.57
64967;BME280;51710;38.732;-121.358;2023-08-12T07:24:51;100886.56;;;25.64;48.80
64967;BME280;51710;38.732;-121.358;2023-08-12T07:27:18;100878.56;;;25.58;48.74
64967;BME280;51710;38.732;-121.358;2023-08-12T07:29:45;100880.63;;;25.50;48.87
64967;BME280;51710;38.732;-121.358;2023-08-12T07:32:12;100883.53;;;25.44;48.77
64967;BME280;51710;38.732;-121.358;2023-08-12T07:34:38;100884.78;;;25.36;48.96
64967;BME280;51710;38.732;-121.358;2023-08-12T07:37:04;100896.16;;;25.33;49.22
64967;BME280;51710;38.732;-121.358;2023-08-12T07:39:30;100887.09;;;25.28;49.10
64967;BME280;51710;38.732;-121.358;2023-08-12T07:41:57;100882.63;;;25.22;49.55
64967;BME280;51710;38.732;-121.358;2023-08-12T07:44:23;100886.31;;;25.16;49.13
64967;BME280;51710;38.732;-121.358;2023-08-12T07:46:49;100888.50;;;25.14;49.68
64967;BME280;51710;38.732;-121.358;2023-08-12T07:49:16;100895.00;;;25.13;49.77
64967;BME280;51710;38.732;-121.358;2023-08-12T07:51:42;100893.88;;;25.09;49.83
64967;BME280;51710;38.732;-121.358;2023-08-12T07:54:08;100888.91;;;25.06;49.97
64967;BME280;51710;38.732;-121.358;2023-08-12T07:56:35;100884.78;;;25.03;49.99
64967;BME280;51710;38.732;-121.358;2023-08-12T07:59:01;100883.94;;;25.03;50.03
64967;BME280;51710;38.732;-121.358;2023-08-12T08:01:28;100880.63;;;25.01;50.14
64967;BME280;51710;38.732;-121.358;2023-08-12T08:03:54;100878.66;;;24.96;50.22
64967;BME280;51710;38.732;-121.358;2023-08-12T08:06:22;100877.25;;;24.94;50.26
64967;BME280;51710;38.732;-121.358;2023-08-12T08:08:53;100884.25;;;24.90;50.65
64967;BME280;51710;38.732;-121.358;2023-08-12T08:11:19;100884.75;;;24.87;50.36
64967;BME280;51710;38.732;-121.358;2023-08-12T08:13:45;100891.28;;;24.86;50.34
64967;BME280;51710;38.732;-121.358;2023-08-12T08:16:12;100894.50;;;24.83;50.70
64967;BME280;51710;38.732;-121.358;2023-08-12T08:18:38;100892.59;;;24.83;50.60
64967;BME280;51710;38.732;-121.358;2023-08-12T08:21:04;100885.25;;;24.84;50.49
64967;BME280;51710;38.732;-121.358;2023-08-12T08:23:30;100894.50;;;24.83;50.64
64967;BME280;51710;38.732;-121.358;2023-08-12T08:25:57;100892.84;;;24.82;50.37
64967;BME280;51710;38.732;-121.358;2023-08-12T08:28:23;100893.94;;;24.81;50.91
64967;BME280;51710;38.732;-121.358;2023-08-12T08:30:49;100887.31;;;24.77;50.50
64967;BME280;51710;38.732;-121.358;2023-08-12T08:33:15;100891.00;;;24.71;50.71
64967;BME280;51710;38.732;-121.358;2023-08-12T08:35:42;100879.41;;;24.64;50.88
64967;BME280;51710;38.732;-121.358;2023-08-12T08:38:08;100872.81;;;24.60;50.92
64967;BME280;51710;38.732;-121.358;2023-08-12T08:40:34;100870.56;;;24.57;51.14
64967;BME280;51710;38.732;-121.358;2023-08-12T08:43:02;100860.06;;;24.48;51.47
64967;BME280;51710;38.732;-121.358;2023-08-12T08:45:32;100857.25;;;24.43;51.44
64967;BME280;51710;38.732;-121.358;2023-08-12T08:48:01;100857.75;;;24.40;51.72
64967;BME280;51710;38.732;-121.358;2023-08-12T08:50:31;100862.13;;;24.41;51.43
64967;BME280;51710;38.732;-121.358;2023-08-12T08:52:57;100863.78;;;24.42;51.46
64967;BME280;51710;38.732;-121.358;2023-08-12T08:55:25;100866.53;;;24.42;51.21
64967;BME280;51710;38.732;-121.358;2023-08-12T08:57:52;100858.91;;;24.44;51.72
64967;BME280;51710;38.732;-121.358;2023-08-12T09:00:18;100868.75;;;24.45;51.39
64967;BME280;51710;38.732;-121.358;2023-08-12T09:02:49;100869.78;;;24.44;51.68
64967;BME280;51710;38.732;-121.358;2023-08-12T09:05:17;100867.56;;;24.41;51.51
64967;BME280;51710;38.732;-121.358;2023-08-12T09:07:46;100874.34;;;24.39;51.58
64967;BME280;51710;38.732;-121.358;2023-08-12T09:10:13;100874.00;;;24.35;51.80
64967;BME280;51710;38.732;-121.358;2023-08-12T09:12:40;100871.41;;;24.29;51.90
64967;BME280;51710;38.732;-121.358;2023-08-12T09:15:07;100871.81;;;24.21;51.92
64967;BME280;51710;38.732;-121.358;2023-08-12T09:17:33;100868.16;;;24.15;52.15
64967;BME280;51710;38.732;-121.358;2023-08-12T09:19:59;100873.25;;;24.12;52.26
64967;BME280;51710;38.732;-121.358;2023-08-12T09:22:26;100877.75;;;24.06;52.03
64967;BME280;51710;38.732;-121.358;2023-08-12T09:25:02;100884.28;;;24.05;52.54
64967;BME280;51710;38.732;-121.358;2023-08-12T09:27:34;100879.91;;;24.04;52.24
64967;BME280;51710;38.732;-121.358;2023-08-12T09:30:03;100875.53;;;24.03;52.38
64967;BME280;51710;38.732;-121.358;2023-08-12T09:32:30;100885.81;;;24.01;52.46
64967;BME280;51710;38.732;-121.358;2023-08-12T09:34:56;100877.06;;;23.99;52.18
64967;BME280;51710;38.732;-121.358;2023-08-12T09:37:24;100889.00;;;23.98;52.37
64967;BME280;51710;38.732;-121.358;2023-08-12T09:39:53;100885.44;;;23.98;52.28
64967;BME280;51710;38.732;-121.358;2023-08-12T09:42:19;100887.59;;;23.96;52.49
64967;BME280;51710;38.732;-121.358;2023-08-12T09:44:46;100885.09;;;23.94;52.19
64967;BME280;51710;38.732;-121.358;2023-08-12T09:47:12;100881.78;;;23.92;52.53
64967;BME280;51710;38.732;-121.358;2023-08-12T09:49:40;100873.63;;;23.92;52.50
64967;BME280;51710;38.732;-121.358;2023-08-12T09:52:07;100868.19;;;23.92;52.41
64967;BME280;51710;38.732;-121.358;2023-08-12T09:54:35;100873.03;;;23.90;52.69
64967;BME280;51710;38.732;-121.358;2023-08-12T09:57:03;100879.47;;;23.84;52.86
64967;BME280;51710;38.732;-121.358;2023-08-12T09:59:34;100868.22;;;23.81;52.85
64967;BME280;51710;38.732;-121.358;2023-08-12T10:02:02;100861.34;;;23.78;52.88
64967;BME280;51710;38.732;-121.358;2023-08-12T10:04:40;100865.75;;;23.79;53.03
64967;BME280;51710;38.732;-121.358;2023-08-12T10:07:11;100866.59;;;23.80;52.96
64967;BME280;51710;38.732;-121.358;2023-08-12T10:09:41;100873.31;;;23.77;53.15
64967;BME280;51710;38.732;-121.358;2023-08-12T10:12:08;100879.25;;;23.74;52.82
64967;BME280;51710;38.732;-121.358;2023-08-12T10:14:35;100879.16;;;23.69;53.03
64967;BME280;51710;38.732;-121.358;2023-08-12T10:17:01;100881.50;;;23.66;53.09
64967;BME280;51710;38.732;-121.358;2023-08-12T10:19:28;100873.34;;;23.66;53.00
64967;BME280;51710;38.732;-121.358;2023-08-12T10:21:56;100876.53;;;23.63;53.21
64967;BME280;51710;38.732;-121.358;2023-08-12T10:24:26;100873.47;;;23.59;53.03
64967;BME280;51710;38.732;-121.358;2023-08-12T10:26:53;100868.75;;;23.55;53.13
64967;BME280;51710;38.732;-121.358;2023-08-12T10:29:22;100866.50;;;23.52;53.27
64967;BME280;51710;38.732;-121.358;2023-08-12T10:31:50;100864.25;;;23.49;53.38
64967;BME280;51710;38.732;-121.358;2023-08-12T10:36:46;100860.63;;;23.43;53.40
64967;BME280;51710;38.732;-121.358;2023-08-12T10:39:13;100862.13;;;23.39;53.46
64967;BME280;51710;38.732;-121.358;2023-08-12T10:41:50;100861.53;;;23.37;53.65
64967;BME280;51710;38.732;-121.358;2023-08-12T10:44:20;100860.34;;;23.33;53.66
64967;BME280;51710;38.732;-121.358;2023-08-12T10:46:52;100859.63;;;23.26;53.99
64967;BME280;51710;38.732;-121.358;2023-08-12T10:49:22;100855.16;;;23.20;53.81
64967;BME280;51710;38.732;-121.358;2023-08-12T10:51:54;100846.88;;;23.15;53.97
64967;BME280;51710;38.732;-121.358;2023-08-12T10:57:04;100849.47;;;23.10;54.18
64967;BME280;51710;38.732;-121.358;2023-08-12T11:02:32;100841.78;;;23.07;53.98
64967;BME280;51710;38.732;-121.358;2023-08-12T11:05:08;100852.63;;;23.07;54.17
64967;BME280;51710;38.732;-121.358;2023-08-12T11:07:46;100861.88;;;23.06;53.95
64967;BME280;51710;38.732;-121.358;2023-08-12T11:12:55;100858.69;;;22.97;54.09
64967;BME280;51710;38.732;-121.358;2023-08-12T11:15:44;100856.66;;;22.93;54.33
64967;BME280;51710;38.732;-121.358;2023-08-12T11:18:20;100856.53;;;22.88;54.28
64967;BME280;51710;38.732;-121.358;2023-08-12T11:20:49;100857.84;;;22.85;54.37
64967;BME280;51710;38.732;-121.358;2023-08-12T11:23:16;100857.47;;;22.82;54.53
64967;BME280;51710;38.732;-121.358;2023-08-12T11:25:43;100856.88;;;22.80;54.75
64967;BME280;51710;38.732;-121.358;2023-08-12T11:28:10;100852.50;;;22.79;54.69
64967;BME280;51710;38.732;-121.358;2023-08-12T11:30:40;100851.31;;;22.75;54.79
64967;BME280;51710;38.732;-121.358;2023-08-12T11:33:09;100863.47;;;22.72;54.90
64967;BME280;51710;38.732;-121.358;2023-08-12T11:35:35;100870.22;;;22.70;54.85
64967;BME280;51710;38.732;-121.358;2023-08-12T11:38:02;100863.09;;;22.69;54.90
64967;BME280;51710;38.732;-121.358;2023-08-12T11:40:28;100878.00;;;22.66;55.02
64967;BME280;51710;38.732;-121.358;2023-08-12T11:42:55;100883.88;;;22.63;55.15
64967;BME280;51710;38.732;-121.358;2023-08-12T11:45:24;100891.44;;;22.61;55.17
64967;BME280;51710;38.732;-121.358;2023-08-12T11:47:51;100884.94;;;22.62;55.15
64967;BME280;51710;38.732;-121.358;2023-08-12T11:50:22;100872.44;;;22.61;55.22
64967;BME280;51710;38.732;-121.358;2023-08-12T11:52:50;100877.03;;;22.61;54.94
64967;BME280;51710;38.732;-121.358;2023-08-12T11:55:16;100884.41;;;22.54;55.21
64967;BME280;51710;38.732;-121.358;2023-08-12T11:57:43;100894.66;;;22.52;55.08
64967;BME280;51710;38.732;-121.358;2023-08-12T12:00:11;100896.78;;;22.50;55.20
64967;BME280;51710;38.732;-121.358;2023-08-12T12:02:49;100898.09;;;22.47;55.28
64967;BME280;51710;38.732;-121.358;2023-08-12T12:05:17;100903.16;;;22.44;55.21
64967;BME280;51710;38.732;-121.358;2023-08-12T12:07:44;100908.44;;;22.39;55.00
64967;BME280;51710;38.732;-121.358;2023-08-12T12:10:30;100899.09;;;22.34;55.13
64967;BME280;51710;38.732;-121.358;2023-08-12T12:12:58;100900.00;;;22.28;54.93
64967;BME280;51710;38.732;-121.358;2023-08-12T12:15:24;100900.09;;;22.22;54.68
64967;BME280;51710;38.732;-121.358;2023-08-12T12:17:51;100900.19;;;22.15;54.93
64967;BME280;51710;38.732;-121.358;2023-08-12T12:20:18;100901.69;;;22.11;55.31
64967;BME280;51710;38.732;-121.358;2023-08-12T12:22:47;100905.91;;;22.07;54.94
64967;BME280;51710;38.732;-121.358;2023-08-12T12:25:15;100902.00;;;22.03;55.19
64967;BME280;51710;38.732;-121.358;2023-08-12T12:27:43;100894.53;;;21.99;55.19
64967;BME280;51710;38.732;-121.358;2023-08-12T12:30:12;100899.59;;;21.95;55.28
64967;BME280;51710;38.732;-121.358;2023-08-12T12:32:38;100902.97;;;21.91;55.38